Decoded Metar for EPLL (LODZ in POLAND) (IATA:N/A) | Meteo·Mobile Aviation Weather
aviador You're here:

EPLL Decoded Metar

LODZ in POLAND
Report Time2019-04-23 08:00:00
UTC Time2019-04-23 08:13:14
Flight Rules vfr VFR
Wind100° at 18 Gusting to 29 kt
W.Decomp.*RWY 07: 16.2 kt HW 7.9 kt RCW
Visibility9999 m
Phenomena:N/A
Clouds:N/A
Expected CloudBase > 4,800 ft AGL from Temp-Dew spread
CeilingNone
Temp13°C (ISA -1)
Dew Point01°C (44% RH)
AAT4.7°C
QNH1018 hPa
Density Alt433 ft
Elevation604 ft
Report Wrong Elevation
Raw Report
EPLL 230800Z 10018G29KT 070V150 CAVOK 13/01 Q1018=

Extra information for EPLL:More info

Metar Taf Metar & Taf Last 4 Metars F.Rules Stats Wind Profile Meteogram Temp Stats Airport Information Weather charts Add Link Nearby VenuesMetar ALERT Operation Metar Decoded Social comments